sensor_id;sensor_type;location;lat;lon;timestamp;temperature;humidity
2477;DHT22;1249;51.270;6.756;2023-05-20T00:01:58;20.30;70.90
2477;DHT22;1249;51.270;6.756;2023-05-20T00:04:24;20.30;71.10
2477;DHT22;1249;51.270;6.756;2023-05-20T00:06:49;20.20;71.10
2477;DHT22;1249;51.270;6.756;2023-05-20T00:09:15;20.20;71.20
2477;DHT22;1249;51.270;6.756;2023-05-20T00:11:45;20.20;71.30
2477;DHT22;1249;51.270;6.756;2023-05-20T00:14:10;20.10;71.30
2477;DHT22;1249;51.270;6.756;2023-05-20T00:16:36;20.10;71.40
2477;DHT22;1249;51.270;6.756;2023-05-20T00:19:01;20.10;71.50
2477;DHT22;1249;51.270;6.756;2023-05-20T00:21:27;20.10;71.60
2477;DHT22;1249;51.270;6.756;2023-05-20T00:23:54;20.10;71.70
2477;DHT22;1249;51.270;6.756;2023-05-20T00:26:19;20.00;71.80
2477;DHT22;1249;51.270;6.756;2023-05-20T00:28:45;20.00;72.00
2477;DHT22;1249;51.270;6.756;2023-05-20T00:31:11;20.00;72.10
2477;DHT22;1249;51.270;6.756;2023-05-20T00:33:36;20.00;72.30
2477;DHT22;1249;51.270;6.756;2023-05-20T00:36:02;19.90;72.20
2477;DHT22;1249;51.270;6.756;2023-05-20T00:38:28;19.90;72.40
2477;DHT22;1249;51.270;6.756;2023-05-20T00:40:53;19.90;72.50
2477;DHT22;1249;51.270;6.756;2023-05-20T00:43:19;19.90;72.70
2477;DHT22;1249;51.270;6.756;2023-05-20T00:45:45;19.90;72.70
2477;DHT22;1249;51.270;6.756;2023-05-20T00:48:12;19.90;73.00
2477;DHT22;1249;51.270;6.756;2023-05-20T00:50:38;19.90;73.00
2477;DHT22;1249;51.270;6.756;2023-05-20T00:53:05;19.80;73.00
2477;DHT22;1249;51.270;6.756;2023-05-20T00:55:31;19.80;73.20
2477;DHT22;1249;51.270;6.756;2023-05-20T00:57:57;19.80;73.30
2477;DHT22;1249;51.270;6.756;2023-05-20T01:00:22;19.80;73.70
2477;DHT22;1249;51.270;6.756;2023-05-20T01:02:48;19.80;73.50
2477;DHT22;1249;51.270;6.756;2023-05-20T01:05:13;19.70;73.50
2477;DHT22;1249;51.270;6.756;2023-05-20T01:07:39;19.70;73.80
2477;DHT22;1249;51.270;6.756;2023-05-20T01:10:06;19.70;73.80
2477;DHT22;1249;51.270;6.756;2023-05-20T01:12:39;19.70;73.80
2477;DHT22;1249;51.270;6.756;2023-05-20T01:15:08;19.70;74.00
2477;DHT22;1249;51.270;6.756;2023-05-20T01:17:39;19.70;74.20
2477;DHT22;1249;51.270;6.756;2023-05-20T01:20:07;19.70;74.30
2477;DHT22;1249;51.270;6.756;2023-05-20T01:25:16;19.60;74.40
2477;DHT22;1249;51.270;6.756;2023-05-20T01:27:42;19.60;74.50
2477;DHT22;1249;51.270;6.756;2023-05-20T01:30:08;19.60;74.70
2477;DHT22;1249;51.270;6.756;2023-05-20T01:32:37;19.60;74.70
2477;DHT22;1249;51.270;6.756;2023-05-20T01:35:05;19.60;74.80
2477;DHT22;1249;51.270;6.756;2023-05-20T01:37:31;19.50;74.90
2477;DHT22;1249;51.270;6.756;2023-05-20T01:39:58;19.50;75.00
2477;DHT22;1249;51.270;6.756;2023-05-20T01:42:27;19.50;75.10
2477;DHT22;1249;51.270;6.756;2023-05-20T01:44:53;19.50;75.30
2477;DHT22;1249;51.270;6.756;2023-05-20T01:47:18;19.50;75.30
2477;DHT22;1249;51.270;6.756;2023-05-20T01:49:44;19.40;75.30
2477;DHT22;1249;51.270;6.756;2023-05-20T01:52:11;19.50;75.50
2477;DHT22;1249;51.270;6.756;2023-05-20T01:54:36;19.40;75.60
2477;DHT22;1249;51.270;6.756;2023-05-20T01:57:02;19.40;75.60
2477;DHT22;1249;51.270;6.756;2023-05-20T01:59:27;19.40;75.80
2477;DHT22;1249;51.270;6.756;2023-05-20T02:01:53;19.40;76.00
2477;DHT22;1249;51.270;6.756;2023-05-20T02:04:18;19.40;76.00
2477;DHT22;1249;51.270;6.756;2023-05-20T02:06:45;19.40;76.20
2477;DHT22;1249;51.270;6.756;2023-05-20T02:09:11;19.30;76.20
2477;DHT22;1249;51.270;6.756;2023-05-20T02:11:36;19.30;76.50
2477;DHT22;1249;51.270;6.756;2023-05-20T02:14:02;19.30;76.50
2477;DHT22;1249;51.270;6.756;2023-05-20T02:16:27;19.30;76.70
2477;DHT22;1249;51.270;6.756;2023-05-20T02:18:53;19.30;76.80
2477;DHT22;1249;51.270;6.756;2023-05-20T02:21:19;19.20;76.80
2477;DHT22;1249;51.270;6.756;2023-05-20T02:23:44;19.20;76.90
2477;DHT22;1249;51.270;6.756;2023-05-20T02:26:10;19.20;77.10
2477;DHT22;1249;51.270;6.756;2023-05-20T02:28:35;19.20;77.20
2477;DHT22;1249;51.270;6.756;2023-05-20T02:31:04;19.10;77.20
2477;DHT22;1249;51.270;6.756;2023-05-20T02:33:30;19.20;77.40
2477;DHT22;1249;51.270;6.756;2023-05-20T02:35:56;19.10;77.40
2477;DHT22;1249;51.270;6.756;2023-05-20T02:38:22;19.10;77.50
2477;DHT22;1249;51.270;6.756;2023-05-20T02:40:47;19.10;77.80
2477;DHT22;1249;51.270;6.756;2023-05-20T02:43:13;19.00;77.80
2477;DHT22;1249;51.270;6.756;2023-05-20T02:45:38;19.10;78.00
2477;DHT22;1249;51.270;6.756;2023-05-20T02:48:04;19.00;78.10
2477;DHT22;1249;51.270;6.756;2023-05-20T02:50:30;19.00;78.10
2477;DHT22;1249;51.270;6.756;2023-05-20T02:52:55;19.00;79.10
2477;DHT22;1249;51.270;6.756;2023-05-20T02:55:21;19.00;78.60
2477;DHT22;1249;51.270;6.756;2023-05-20T02:57:48;18.90;78.60
2477;DHT22;1249;51.270;6.756;2023-05-20T03:00:13;19.00;78.80
2477;DHT22;1249;51.270;6.756;2023-05-20T03:02:39;18.90;78.80
2477;DHT22;1249;51.270;6.756;2023-05-20T03:05:05;18.90;79.00
2477;DHT22;1249;51.270;6.756;2023-05-20T03:07:33;19.00;79.10
2477;DHT22;1249;51.270;6.756;2023-05-20T03:10:00;18.90;79.30
2477;DHT22;1249;51.270;6.756;2023-05-20T03:12:27;18.80;79.20
2477;DHT22;1249;51.270;6.756;2023-05-20T03:14:52;18.90;79.50
2477;DHT22;1249;51.270;6.756;2023-05-20T03:17:20;18.90;79.50
2477;DHT22;1249;51.270;6.756;2023-05-20T03:19:46;18.90;79.60
2477;DHT22;1249;51.270;6.756;2023-05-20T03:22:11;18.80;79.70
2477;DHT22;1249;51.270;6.756;2023-05-20T03:24:37;18.80;79.90
2477;DHT22;1249;51.270;6.756;2023-05-20T03:27:03;18.80;79.90
2477;DHT22;1249;51.270;6.756;2023-05-20T03:29:29;18.80;80.10
2477;DHT22;1249;51.270;6.756;2023-05-20T03:31:55;18.80;80.20
2477;DHT22;1249;51.270;6.756;2023-05-20T03:34:21;18.70;80.40
2477;DHT22;1249;51.270;6.756;2023-05-20T03:36:46;18.80;80.50
2477;DHT22;1249;51.270;6.756;2023-05-20T03:39:12;18.70;80.50
2477;DHT22;1249;51.270;6.756;2023-05-20T03:41:37;18.70;80.70
2477;DHT22;1249;51.270;6.756;2023-05-20T03:44:03;18.70;80.80
2477;DHT22;1249;51.270;6.756;2023-05-20T03:46:29;18.70;81.00
2477;DHT22;1249;51.270;6.756;2023-05-20T03:48:56;18.70;81.10
2477;DHT22;1249;51.270;6.756;2023-05-20T03:51:22;18.70;81.10
2477;DHT22;1249;51.270;6.756;2023-05-20T03:53:47;18.70;81.40
2477;DHT22;1249;51.270;6.756;2023-05-20T03:56:13;18.70;81.60
2477;DHT22;1249;51.270;6.756;2023-05-20T03:58:38;18.70;81.70
2477;DHT22;1249;51.270;6.756;2023-05-20T04:01:04;18.70;81.90
2477;DHT22;1249;51.270;6.756;2023-05-20T04:03:29;18.70;81.80
2477;DHT22;1249;51.270;6.756;2023-05-20T04:05:55;18.70;82.00
2477;DHT22;1249;51.270;6.756;2023-05-20T04:08:21;18.70;82.20
2477;DHT22;1249;51.270;6.756;2023-05-20T04:10:50;18.70;82.20
2477;DHT22;1249;51.270;6.756;2023-05-20T04:13:19;18.70;82.20
2477;DHT22;1249;51.270;6.756;2023-05-20T04:15:45;18.70;82.20
2477;DHT22;1249;51.270;6.756;2023-05-20T04:18:11;18.70;82.50
2477;DHT22;1249;51.270;6.756;2023-05-20T04:20:37;18.70;82.60
2477;DHT22;1249;51.270;6.756;2023-05-20T04:23:02;18.70;82.60
2477;DHT22;1249;51.270;6.756;2023-05-20T04:25:28;18.70;82.60
2477;DHT22;1249;51.270;6.756;2023-05-20T04:27:54;18.70;82.70
2477;DHT22;1249;51.270;6.756;2023-05-20T04:30:19;18.70;82.90
2477;DHT22;1249;51.270;6.756;2023-05-20T04:32:47;18.70;82.90
2477;DHT22;1249;51.270;6.756;2023-05-20T04:35:12;18.70;83.20
2477;DHT22;1249;51.270;6.756;2023-05-20T04:37:39;18.70;83.10
2477;DHT22;1249;51.270;6.756;2023-05-20T04:40:06;18.70;83.20
2477;DHT22;1249;51.270;6.756;2023-05-20T04:42:33;18.70;83.30
2477;DHT22;1249;51.270;6.756;2023-05-20T04:44:59;18.70;83.30
2477;DHT22;1249;51.270;6.756;2023-05-20T04:47:27;18.70;83.40
2477;DHT22;1249;51.270;6.756;2023-05-20T04:49:54;18.70;83.40
2477;DHT22;1249;51.270;6.756;2023-05-20T04:52:24;18.70;83.50
2477;DHT22;1249;51.270;6.756;2023-05-20T04:54:50;18.80;83.50
2477;DHT22;1249;51.270;6.756;2023-05-20T04:57:16;18.80;83.60
2477;DHT22;1249;51.270;6.756;2023-05-20T04:59:46;18.80;83.60
2477;DHT22;1249;51.270;6.756;2023-05-20T05:02:12;18.80;83.70
2477;DHT22;1249;51.270;6.756;2023-05-20T05:04:37;18.80;83.60
2477;DHT22;1249;51.270;6.756;2023-05-20T05:07:03;18.80;83.70
2477;DHT22;1249;51.270;6.756;2023-05-20T05:09:29;18.80;83.60
2477;DHT22;1249;51.270;6.756;2023-05-20T05:11:55;18.90;83.80
2477;DHT22;1249;51.270;6.756;2023-05-20T05:14:20;18.80;83.80
2477;DHT22;1249;51.270;6.756;2023-05-20T05:16:48;18.90;83.70
2477;DHT22;1249;51.270;6.756;2023-05-20T05:19:13;18.80;83.50
2477;DHT22;1249;51.270;6.756;2023-05-20T05:21:39;18.90;83.80
2477;DHT22;1249;51.270;6.756;2023-05-20T05:24:05;18.90;83.50
2477;DHT22;1249;51.270;6.756;2023-05-20T05:26:31;18.90;83.70
2477;DHT22;1249;51.270;6.756;2023-05-20T05:28:56;19.00;83.60
2477;DHT22;1249;51.270;6.756;2023-05-20T05:31:22;19.00;83.70
2477;DHT22;1249;51.270;6.756;2023-05-20T05:33:47;19.00;83.60
2477;DHT22;1249;51.270;6.756;2023-05-20T05:36:13;19.00;83.10
2477;DHT22;1249;51.270;6.756;2023-05-20T05:38:38;19.00;83.10
2477;DHT22;1249;51.270;6.756;2023-05-20T05:41:04;19.10;82.30
2477;DHT22;1249;51.270;6.756;2023-05-20T05:43:29;19.00;82.10
2477;DHT22;1249;51.270;6.756;2023-05-20T05:45:55;18.80;79.70
2477;DHT22;1249;51.270;6.756;2023-05-20T05:48:21;18.90;80.20
2477;DHT22;1249;51.270;6.756;2023-05-20T05:50:47;19.00;81.10
2477;DHT22;1249;51.270;6.756;2023-05-20T05:53:13;19.20;83.70
2477;DHT22;1249;51.270;6.756;2023-05-20T05:55:41;19.40;84.60
2477;DHT22;1249;51.270;6.756;2023-05-20T05:58:07;19.70;85.70
2477;DHT22;1249;51.270;6.756;2023-05-20T06:00:32;20.00;83.00
2477;DHT22;1249;51.270;6.756;2023-05-20T06:02:58;20.20;82.40
2477;DHT22;1249;51.270;6.756;2023-05-20T06:05:24;20.50;81.00
2477;DHT22;1249;51.270;6.756;2023-05-20T06:07:50;20.70;80.80
2477;DHT22;1249;51.270;6.756;2023-05-20T06:10:15;20.90;77.90
2477;DHT22;1249;51.270;6.756;2023-05-20T06:12:41;21.00;77.80
2477;DHT22;1249;51.270;6.756;2023-05-20T06:15:08;21.20;76.60
2477;DHT22;1249;51.270;6.756;2023-05-20T06:17:34;21.40;76.80
2477;DHT22;1249;51.270;6.756;2023-05-20T06:19:59;21.40;75.90
2477;DHT22;1249;51.270;6.756;2023-05-20T06:22:25;21.40;76.60
2477;DHT22;1249;51.270;6.756;2023-05-20T06:24:52;21.40;76.60
2477;DHT22;1249;51.270;6.756;2023-05-20T06:27:17;21.60;77.30
2477;DHT22;1249;51.270;6.756;2023-05-20T06:29:43;21.40;77.70
2477;DHT22;1249;51.270;6.756;2023-05-20T06:32:08;21.30;78.20
2477;DHT22;1249;51.270;6.756;2023-05-20T06:34:34;21.20;79.70
2477;DHT22;1249;51.270;6.756;2023-05-20T06:36:59;21.10;79.50
2477;DHT22;1249;51.270;6.756;2023-05-20T06:39:25;21.00;79.80
2477;DHT22;1249;51.270;6.756;2023-05-20T06:41:51;20.90;80.70
2477;DHT22;1249;51.270;6.756;2023-05-20T06:44:17;20.90;80.70
2477;DHT22;1249;51.270;6.756;2023-05-20T06:46:43;20.90;80.30
2477;DHT22;1249;51.270;6.756;2023-05-20T06:49:08;20.90;81.00
2477;DHT22;1249;51.270;6.756;2023-05-20T06:51:34;20.90;81.10
2477;DHT22;1249;51.270;6.756;2023-05-20T06:54:00;21.00;81.10
2477;DHT22;1249;51.270;6.756;2023-05-20T06:56:25;21.00;81.20
2477;DHT22;1249;51.270;6.756;2023-05-20T06:58:51;21.20;81.40
2477;DHT22;1249;51.270;6.756;2023-05-20T07:01:16;21.40;81.20
2477;DHT22;1249;51.270;6.756;2023-05-20T07:03:42;21.80;80.10
2477;DHT22;1249;51.270;6.756;2023-05-20T07:06:09;22.10;78.60
2477;DHT22;1249;51.270;6.756;2023-05-20T07:08:34;22.60;76.90
2477;DHT22;1249;51.270;6.756;2023-05-20T07:11:00;22.90;74.40
2477;DHT22;1249;51.270;6.756;2023-05-20T07:13:26;22.90;73.10
2477;DHT22;1249;51.270;6.756;2023-05-20T07:15:51;22.80;73.90
2477;DHT22;1249;51.270;6.756;2023-05-20T07:18:17;22.50;74.60
2477;DHT22;1249;51.270;6.756;2023-05-20T07:20:44;22.30;76.90
2477;DHT22;1249;51.270;6.756;2023-05-20T07:23:09;22.10;76.10
2477;DHT22;1249;51.270;6.756;2023-05-20T07:25:35;22.10;76.70
2477;DHT22;1249;51.270;6.756;2023-05-20T07:28:01;21.90;75.50
2477;DHT22;1249;51.270;6.756;2023-05-20T07:30:26;21.80;77.20
2477;DHT22;1249;51.270;6.756;2023-05-20T07:32:52;21.80;77.30
2477;DHT22;1249;51.270;6.756;2023-05-20T07:35:18;21.80;78.70
2477;DHT22;1249;51.270;6.756;2023-05-20T07:37:43;21.80;77.70
2477;DHT22;1249;51.270;6.756;2023-05-20T07:40:09;21.70;76.00
2477;DHT22;1249;51.270;6.756;2023-05-20T07:42:35;21.70;75.10
2477;DHT22;1249;51.270;6.756;2023-05-20T07:45:00;21.80;74.50
2477;DHT22;1249;51.270;6.756;2023-05-20T07:47:26;21.80;73.60
2477;DHT22;1249;51.270;6.756;2023-05-20T07:49:52;21.80;72.50
2477;DHT22;1249;51.270;6.756;2023-05-20T07:52:17;21.80;72.30
2477;DHT22;1249;51.270;6.756;2023-05-20T07:54:43;21.90;70.30
2477;DHT22;1249;51.270;6.756;2023-05-20T07:57:08;22.00;70.00
2477;DHT22;1249;51.270;6.756;2023-05-20T07:59:34;22.10;69.70
2477;DHT22;1249;51.270;6.756;2023-05-20T08:01:59;22.10;69.50
2477;DHT22;1249;51.270;6.756;2023-05-20T08:04:25;22.10;69.60
2477;DHT22;1249;51.270;6.756;2023-05-20T08:06:52;22.20;69.50
2477;DHT22;1249;51.270;6.756;2023-05-20T08:09:17;22.20;69.40
2477;DHT22;1249;51.270;6.756;2023-05-20T08:11:43;22.30;69.70
2477;DHT22;1249;51.270;6.756;2023-05-20T08:14:09;22.40;69.10
2477;DHT22;1249;51.270;6.756;2023-05-20T08:16:35;22.40;69.30
2477;DHT22;1249;51.270;6.756;2023-05-20T08:19:02;22.50;69.20
2477;DHT22;1249;51.270;6.756;2023-05-20T08:21:27;22.60;68.90
2477;DHT22;1249;51.270;6.756;2023-05-20T08:23:53;22.80;69.00
2477;DHT22;1249;51.270;6.756;2023-05-20T08:26:18;22.90;68.90
2477;DHT22;1249;51.270;6.756;2023-05-20T08:28:44;23.00;69.00
2477;DHT22;1249;51.270;6.756;2023-05-20T08:31:09;23.10;68.70
2477;DHT22;1249;51.270;6.756;2023-05-20T08:33:35;23.10;68.30
2477;DHT22;1249;51.270;6.756;2023-05-20T08:36:00;23.20;68.20
2477;DHT22;1249;51.270;6.756;2023-05-20T08:38:26;23.40;68.40
2477;DHT22;1249;51.270;6.756;2023-05-20T08:40:55;23.50;68.20
2477;DHT22;1249;51.270;6.756;2023-05-20T08:43:22;23.60;67.40
2477;DHT22;1249;51.270;6.756;2023-05-20T08:45:48;23.70;66.70
2477;DHT22;1249;51.270;6.756;2023-05-20T08:48:17;23.90;67.00
2477;DHT22;1249;51.270;6.756;2023-05-20T08:50:44;24.10;66.90
2477;DHT22;1249;51.270;6.756;2023-05-20T08:53:13;24.30;66.90
2477;DHT22;1249;51.270;6.756;2023-05-20T08:55:45;24.60;66.60
2477;DHT22;1249;51.270;6.756;2023-05-20T08:58:11;24.80;66.10
2477;DHT22;1249;51.270;6.756;2023-05-20T09:00:39;24.90;65.70
2477;DHT22;1249;51.270;6.756;2023-05-20T09:03:06;25.10;65.20
2477;DHT22;1249;51.270;6.756;2023-05-20T09:05:33;25.30;65.00
2477;DHT22;1249;51.270;6.756;2023-05-20T09:08:09;25.40;64.50
2477;DHT22;1249;51.270;6.756;2023-05-20T09:10:35;25.50;64.10
2477;DHT22;1249;51.270;6.756;2023-05-20T09:13:02;25.70;64.10
2477;DHT22;1249;51.270;6.756;2023-05-20T09:15:32;25.90;63.90
2477;DHT22;1249;51.270;6.756;2023-05-20T09:18:02;26.20;63.60
2477;DHT22;1249;51.270;6.756;2023-05-20T09:20:28;26.60;62.50
2477;DHT22;1249;51.270;6.756;2023-05-20T09:22:58;27.00;62.40
2477;DHT22;1249;51.270;6.756;2023-05-20T09:25:24;27.30;60.60
2477;DHT22;1249;51.270;6.756;2023-05-20T09:27:49;27.50;59.70
2477;DHT22;1249;51.270;6.756;2023-05-20T09:30:18;27.70;59.20
2477;DHT22;1249;51.270;6.756;2023-05-20T09:32:44;28.00;59.10
2477;DHT22;1249;51.270;6.756;2023-05-20T09:35:13;28.10;58.30
2477;DHT22;1249;51.270;6.756;2023-05-20T09:37:41;28.10;57.60
2477;DHT22;1249;51.270;6.756;2023-05-20T09:40:10;28.10;57.90
2477;DHT22;1249;51.270;6.756;2023-05-20T09:42:40;28.10;58.40
2477;DHT22;1249;51.270;6.756;2023-05-20T09:45:07;28.30;58.10
2477;DHT22;1249;51.270;6.756;2023-05-20T09:47:37;28.40;57.60
2477;DHT22;1249;51.270;6.756;2023-05-20T09:50:05;28.30;57.10
2477;DHT22;1249;51.270;6.756;2023-05-20T09:52:32;28.30;56.60
2477;DHT22;1249;51.270;6.756;2023-05-20T09:55:01;28.20;56.60
2477;DHT22;1249;51.270;6.756;2023-05-20T09:57:29;28.20;56.50
2477;DHT22;1249;51.270;6.756;2023-05-20T09:59:55;28.20;56.30
2477;DHT22;1249;51.270;6.756;2023-05-20T10:02:21;28.20;56.60
2477;DHT22;1249;51.270;6.756;2023-05-20T10:04:49;28.50;56.70
2477;DHT22;1249;51.270;6.756;2023-05-20T10:16:28;29.30;54.20
2477;DHT22;1249;51.270;6.756;2023-05-20T10:21:22;29.40;53.60
2477;DHT22;1249;51.270;6.756;2023-05-20T10:23:49;29.50;53.20
2477;DHT22;1249;51.270;6.756;2023-05-20T10:26:15;29.50;53.40
2477;DHT22;1249;51.270;6.756;2023-05-20T10:28:42;29.50;53.20
2477;DHT22;1249;51.270;6.756;2023-05-20T10:31:19;29.70;53.30
2477;DHT22;1249;51.270;6.756;2023-05-20T10:33:46;29.70;53.00
2477;DHT22;1249;51.270;6.756;2023-05-20T10:36:22;29.30;53.50
2477;DHT22;1249;51.270;6.756;2023-05-20T10:38:53;29.50;53.40
2477;DHT22;1249;51.270;6.756;2023-05-20T10:41:27;29.60;53.20
2477;DHT22;1249;51.270;6.756;2023-05-20T10:44:03;29.60;53.10
2477;DHT22;1249;51.270;6.756;2023-05-20T10:46:29;29.70;53.20
2477;DHT22;1249;51.270;6.756;2023-05-20T10:48:55;29.70;52.90
2477;DHT22;1249;51.270;6.756;2023-05-20T10:51:22;29.70;52.60
2477;DHT22;1249;51.270;6.756;2023-05-20T10:53:51;29.50;52.50
2477;DHT22;1249;51.270;6.756;2023-05-20T10:56:22;29.40;52.80
2477;DHT22;1249;51.270;6.756;2023-05-20T10:58:48;29.20;53.00
2477;DHT22;1249;51.270;6.756;2023-05-20T11:01:15;29.10;53.20
2477;DHT22;1249;51.270;6.756;2023-05-20T11:03:42;28.90;53.30
2477;DHT22;1249;51.270;6.756;2023-05-20T11:06:13;28.60;53.50
2477;DHT22;1249;51.270;6.756;2023-05-20T11:08:38;28.50;53.80
2477;DHT22;1249;51.270;6.756;2023-05-20T11:11:04;28.30;54.20
2477;DHT22;1249;51.270;6.756;2023-05-20T11:13:30;28.20;54.60
2477;DHT22;1249;51.270;6.756;2023-05-20T11:15:56;28.10;54.90
2477;DHT22;1249;51.270;6.756;2023-05-20T11:18:26;28.00;55.00
2477;DHT22;1249;51.270;6.756;2023-05-20T11:20:54;27.60;55.40
2477;DHT22;1249;51.270;6.756;2023-05-20T11:23:20;27.60;55.60
2477;DHT22;1249;51.270;6.756;2023-05-20T11:25:49;27.60;55.70
2477;DHT22;1249;51.270;6.756;2023-05-20T11:28:15;27.50;55.80
2477;DHT22;1249;51.270;6.756;2023-05-20T11:30:44;27.40;56.00
2477;DHT22;1249;51.270;6.756;2023-05-20T11:33:14;27.50;56.40
2477;DHT22;1249;51.270;6.756;2023-05-20T11:35:45;27.50;56.60
2477;DHT22;1249;51.270;6.756;2023-05-20T11:38:11;27.60;56.40
2477;DHT22;1249;51.270;6.756;2023-05-20T11:40:37;27.70;56.50
2477;DHT22;1249;51.270;6.756;2023-05-20T11:43:09;27.90;56.50
2477;DHT22;1249;51.270;6.756;2023-05-20T11:45:43;28.20;56.20
2477;DHT22;1249;51.270;6.756;2023-05-20T11:48:09;28.40;55.80
2477;DHT22;1249;51.270;6.756;2023-05-20T11:50:38;28.80;55.60
2477;DHT22;1249;51.270;6.756;2023-05-20T11:53:09;29.10;55.10
2477;DHT22;1249;51.270;6.756;2023-05-20T11:55:54;29.50;54.50
2477;DHT22;1249;51.270;6.756;2023-05-20T11:58:22;29.80;54.20
2477;DHT22;1249;51.270;6.756;2023-05-20T12:00:49;30.10;53.70
2477;DHT22;1249;51.270;6.756;2023-05-20T12:03:15;30.30;53.10
2477;DHT22;1249;51.270;6.756;2023-05-20T12:05:41;30.50;52.80
2477;DHT22;1249;51.270;6.756;2023-05-20T12:08:07;30.60;52.30
2477;DHT22;1249;51.270;6.756;2023-05-20T12:10:33;30.80;52.20
2477;DHT22;1249;51.270;6.756;2023-05-20T12:12:59;31.10;52.10
2477;DHT22;1249;51.270;6.756;2023-05-20T12:15:25;31.50;52.00
2477;DHT22;1249;51.270;6.756;2023-05-20T12:17:52;31.70;51.40
2477;DHT22;1249;51.270;6.756;2023-05-20T12:20:20;32.00;50.70
2477;DHT22;1249;51.270;6.756;2023-05-20T12:22:46;32.30;50.40
2477;DHT22;1249;51.270;6.756;2023-05-20T12:25:14;32.40;49.90
2477;DHT22;1249;51.270;6.756;2023-05-20T12:27:42;32.60;49.70
2477;DHT22;1249;51.270;6.756;2023-05-20T12:30:14;32.90;49.40
2477;DHT22;1249;51.270;6.756;2023-05-20T12:32:40;33.20;49.40
2477;DHT22;1249;51.270;6.756;2023-05-20T12:35:06;33.50;49.00
2477;DHT22;1249;51.270;6.756;2023-05-20T12:37:31;33.60;48.20
2477;DHT22;1249;51.270;6.756;2023-05-20T12:39:58;33.50;48.10
2477;DHT22;1249;51.270;6.756;2023-05-20T12:42:23;33.30;48.00
2477;DHT22;1249;51.270;6.756;2023-05-20T12:44:49;33.10;48.10
2477;DHT22;1249;51.270;6.756;2023-05-20T12:47:15;32.90;48.80
2477;DHT22;1249;51.270;6.756;2023-05-20T12:49:40;32.70;49.00
2477;DHT22;1249;51.270;6.756;2023-05-20T12:52:06;32.70;49.30
2477;DHT22;1249;51.270;6.756;2023-05-20T12:54:31;32.80;49.50
2477;DHT22;1249;51.270;6.756;2023-05-20T12:56:58;32.90;49.60
2477;DHT22;1249;51.270;6.756;2023-05-20T12:59:23;33.00;48.70
2477;DHT22;1249;51.270;6.756;2023-05-20T13:01:49;32.90;48.80
2477;DHT22;1249;51.270;6.756;2023-05-20T13:04:14;32.90;48.30
2477;DHT22;1249;51.270;6.756;2023-05-20T13:06:41;32.60;48.40
2477;DHT22;1249;51.270;6.756;2023-05-20T13:09:07;32.30;49.00
2477;DHT22;1249;51.270;6.756;2023-05-20T13:11:32;32.20;49.30
2477;DHT22;1249;51.270;6.756;2023-05-20T13:13:58;31.90;49.70
2477;DHT22;1249;51.270;6.756;2023-05-20T13:16:24;31.60;49.70
2477;DHT22;1249;51.270;6.756;2023-05-20T13:18:50;31.40;50.10
2477;DHT22;1249;51.270;6.756;2023-05-20T13:21:16;31.20;50.90
2477;DHT22;1249;51.270;6.756;2023-05-20T13:23:42;31.40;51.10
2477;DHT22;1249;51.270;6.756;2023-05-20T13:26:08;31.50;50.80
2477;DHT22;1249;51.270;6.756;2023-05-20T13:28:34;31.40;50.60
2477;DHT22;1249;51.270;6.756;2023-05-20T13:31:04;31.40;50.60
2477;DHT22;1249;51.270;6.756;2023-05-20T13:33:30;31.30;50.40
2477;DHT22;1249;51.270;6.756;2023-05-20T13:35:56;31.20;50.80
2477;DHT22;1249;51.270;6.756;2023-05-20T13:38:22;31.20;50.90
2477;DHT22;1249;51.270;6.756;2023-05-20T13:40:47;31.10;51.00
2477;DHT22;1249;51.270;6.756;2023-05-20T13:43:14;31.00;51.30
2477;DHT22;1249;51.270;6.756;2023-05-20T13:45:39;30.90;51.30
2477;DHT22;1249;51.270;6.756;2023-05-20T13:48:05;31.00;51.50
2477;DHT22;1249;51.270;6.756;2023-05-20T13:50:31;31.10;51.50
2477;DHT22;1249;51.270;6.756;2023-05-20T13:52:56;31.10;51.40
2477;DHT22;1249;51.270;6.756;2023-05-20T13:55:22;31.10;51.10
2477;DHT22;1249;51.270;6.756;2023-05-20T13:57:47;31.10;51.10
2477;DHT22;1249;51.270;6.756;2023-05-20T14:00:13;31.10;51.40
2477;DHT22;1249;51.270;6.756;2023-05-20T14:02:39;31.10;51.40
2477;DHT22;1249;51.270;6.756;2023-05-20T14:05:05;31.10;51.30
2477;DHT22;1249;51.270;6.756;2023-05-20T14:07:32;31.00;51.10
2477;DHT22;1249;51.270;6.756;2023-05-20T14:09:57;31.10;51.20
2477;DHT22;1249;51.270;6.756;2023-05-20T14:12:23;31.20;51.30
2477;DHT22;1249;51.270;6.756;2023-05-20T14:14:49;31.20;51.00
2477;DHT22;1249;51.270;6.756;2023-05-20T14:17:15;31.40;51.10
2477;DHT22;1249;51.270;6.756;2023-05-20T14:19:40;31.50;50.50
2477;DHT22;1249;51.270;6.756;2023-05-20T14:22:06;31.50;50.70
2477;DHT22;1249;51.270;6.756;2023-05-20T14:24:31;31.70;51.20
2477;DHT22;1249;51.270;6.756;2023-05-20T14:26:57;32.10;50.20
2477;DHT22;1249;51.270;6.756;2023-05-20T14:29:22;32.10;49.40
2477;DHT22;1249;51.270;6.756;2023-05-20T14:31:48;32.10;49.40
2477;DHT22;1249;51.270;6.756;2023-05-20T14:34:14;32.10;49.40
2477;DHT22;1249;51.270;6.756;2023-05-20T14:36:39;32.20;49.40
2477;DHT22;1249;51.270;6.756;2023-05-20T14:41:33;32.70;49.20
2477;DHT22;1249;51.270;6.756;2023-05-20T14:43:58;33.40;49.10
2477;DHT22;1249;51.270;6.756;2023-05-20T14:46:25;33.90;47.20
2477;DHT22;1249;51.270;6.756;2023-05-20T14:48:51;33.90;47.00
2477;DHT22;1249;51.270;6.756;2023-05-20T14:51:16;33.80;47.20
2477;DHT22;1249;51.270;6.756;2023-05-20T14:53:42;33.40;47.00
2477;DHT22;1249;51.270;6.756;2023-05-20T14:56:07;32.90;47.20
2477;DHT22;1249;51.270;6.756;2023-05-20T14:58:33;32.50;47.80
2477;DHT22;1249;51.270;6.756;2023-05-20T15:00:59;32.10;48.50
2477;DHT22;1249;51.270;6.756;2023-05-20T15:03:25;31.80;49.50
2477;DHT22;1249;51.270;6.756;2023-05-20T15:05:52;31.60;51.00
2477;DHT22;1249;51.270;6.756;2023-05-20T15:08:17;31.60;50.70
2477;DHT22;1249;51.270;6.756;2023-05-20T15:10:43;31.50;50.30
2477;DHT22;1249;51.270;6.756;2023-05-20T15:13:08;31.20;50.50
2477;DHT22;1249;51.270;6.756;2023-05-20T15:15:34;30.90;50.80
2477;DHT22;1249;51.270;6.756;2023-05-20T15:17:59;30.50;51.10
2477;DHT22;1249;51.270;6.756;2023-05-20T15:20:25;30.20;51.60
2477;DHT22;1249;51.270;6.756;2023-05-20T15:22:51;29.80;51.90
2477;DHT22;1249;51.270;6.756;2023-05-20T15:25:16;29.60;52.80
2477;DHT22;1249;51.270;6.756;2023-05-20T15:27:42;29.40;52.80
2477;DHT22;1249;51.270;6.756;2023-05-20T15:30:08;29.20;53.00
2477;DHT22;1249;51.270;6.756;2023-05-20T15:32:34;29.00;53.30
2477;DHT22;1249;51.270;6.756;2023-05-20T15:35:00;28.80;53.90
2477;DHT22;1249;51.270;6.756;2023-05-20T15:37:26;28.60;54.10
2477;DHT22;1249;51.270;6.756;2023-05-20T15:39:52;28.40;53.60
2477;DHT22;1249;51.270;6.756;2023-05-20T15:42:17;28.20;53.20
2477;DHT22;1249;51.270;6.756;2023-05-20T15:44:44;28.10;53.20
2477;DHT22;1249;51.270;6.756;2023-05-20T15:47:09;28.10;53.10
2477;DHT22;1249;51.270;6.756;2023-05-20T15:49:35;27.90;52.80
2477;DHT22;1249;51.270;6.756;2023-05-20T15:52:01;27.70;53.00
2477;DHT22;1249;51.270;6.756;2023-05-20T15:54:27;27.50;53.30
2477;DHT22;1249;51.270;6.756;2023-05-20T15:56:52;27.40;53.60
2477;DHT22;1249;51.270;6.756;2023-05-20T15:59:18;27.30;53.50
2477;DHT22;1249;51.270;6.756;2023-05-20T16:01:43;27.10;53.60
2477;DHT22;1249;51.270;6.756;2023-05-20T16:04:09;27.00;54.20
2477;DHT22;1249;51.270;6.756;2023-05-20T16:06:34;26.90;55.30
2477;DHT22;1249;51.270;6.756;2023-05-20T16:09:00;26.80;55.70
2477;DHT22;1249;51.270;6.756;2023-05-20T16:11:26;26.70;56.20
2477;DHT22;1249;51.270;6.756;2023-05-20T16:13:52;26.60;56.40